Humidity-temperature Sensor

Selected Measurement Type: Air Temperature

 
Air Temperature [°C]     6 entries per hour
Showing data from 10/2/2022 (15:00:00 Z) to 10/1/2022 (00:01:00 Z)
Previous Next [ Day | 3-Days | 7-Days ]
First Last
Prev [ Day | 3-Days | 7-Days ] Next
First Last

Start Time:     :
End Time:     :     
Time (in GMT) :00 :50 :40 :30 :20 :10
Previous Next [ Day | 3-Days | 7-Days ]
First Last
Prev [ Day | 3-Days | 7-Days ] Next
First Last


123 => good data
MM => data is determined as missing
-- => data not received/configured
Back to Top Back to Top
10/2/2022 15:00 to 14:10 25.15 24.57 25.14 25.20 25.26 25.15
10/2/2022 14:00 to 13:10 25.00 25.09 25.24 25.12 25.31 25.54
10/2/2022 13:00 to 12:10 25.53 25.51 25.35 25.30 25.30 25.46
10/2/2022 12:00 to 11:10 25.26 25.13 25.12 25.12 25.30 25.16
10/2/2022 11:00 to 10:10 25.12 25.12 25.18 25.02 25.02 25.20
10/2/2022 10:00 to 9:10 25.41 25.25 25.35 25.17 24.77 24.73
10/2/2022 09:00 to 8:10 25.05 24.95 25.23 25.28 25.29 25.32
10/2/2022 08:00 to 7:10 25.20 25.26 25.20 25.18 25.19 25.08
10/2/2022 07:00 to 6:10 25.02 24.96 24.92 25.05 25.18 25.61
10/2/2022 06:00 to 5:10 25.11 25.05 24.90 24.64 24.41 24.46
10/2/2022 05:00 to 4:10 24.58 24.92 25.78 25.69 25.51 25.81
10/2/2022 04:00 to 3:10 25.64 25.40 25.36 25.47 25.48 25.47
10/2/2022 03:00 to 2:10 25.61 25.64 25.63 25.50 25.75 25.59
10/2/2022 02:00 to 1:10 25.76 25.72 25.69 25.69 25.61 25.51
10/2/2022 01:00 to 0:10 25.65 25.85 25.80 25.62 25.80 25.42
10/2/2022 00:00 to 23:10 25.29 25.39 25.18 25.38 25.35 25.10
10/1/2022 23:00 to 22:10 24.83 25.14 25.19 25.12 24.77 24.71
10/1/2022 22:00 to 21:10 24.63 24.68 24.98 25.55 25.07 25.64
10/1/2022 21:00 to 20:10 25.37 25.35 25.55 25.41 25.38 25.55
10/1/2022 20:00 to 19:10 25.55 25.51 25.66 25.51 25.75 25.73
10/1/2022 19:00 to 18:10 25.53 25.56 25.38 25.35 25.55 25.26
10/1/2022 18:00 to 17:10 25.28 25.39 25.45 25.57 25.33 25.43
10/1/2022 17:00 to 16:10 25.25 25.36 25.45 25.46 25.27 25.49
10/1/2022 16:00 to 15:10 25.43 25.44 25.31 25.43 25.28 25.06
10/1/2022 15:00 to 14:10 25.16 25.23 25.20 25.30 25.54 25.38
10/1/2022 14:00 to 13:10 25.52 25.20 24.92 25.13 25.48 25.30
10/1/2022 13:00 to 12:10 25.22 25.45 25.30 25.32 25.28 25.34
10/1/2022 12:00 to 11:10 25.51 25.52 25.30 25.37 25.47 25.46
10/1/2022 11:00 to 10:10 25.33 25.69 25.38 25.38 25.20 25.08
10/1/2022 10:00 to 9:10 25.25 25.18 25.15 25.51 25.14 25.24
10/1/2022 09:00 to 8:10 25.13 25.15 24.79 24.89 25.22 24.93
10/1/2022 08:00 to 7:10 25.20 24.67 24.68 24.68 25.15 24.85
10/1/2022 07:00 to 6:10 24.92 24.98 24.75 24.62 24.86 25.28
10/1/2022 06:00 to 5:10 25.40 25.23 25.05 25.20 25.12 25.09
10/1/2022 05:00 to 4:10 25.02 25.55 25.20 25.23 25.02 24.90
10/1/2022 04:00 to 3:10 25.24 24.91 24.71 24.99 24.85 24.82
10/1/2022 03:00 to 2:10 24.81 24.87 25.00 24.76 25.13 24.91
10/1/2022 02:00 to 1:10 24.99 24.86 25.26 25.10 25.32 25.27
10/1/2022 01:00 to 0:10 25.12 25.15 24.98 25.01 25.11 24.90